Aérodrome :
LOGIN :

S'inscrire | Disclaimer

   EN    FR    IT 

 










Légende :    VFR   VFR Marginal   IFR   IFR Intensif   IFR Très Intensif
Visi : 
Plafond : 
>= 8 km
>= 3000ft
5 à 8 km
1000 à 3000 ft
1500m à 5 km
500 à 1000 ft
800 à 1500m
200 à 500 ft
< 800m
< 200 ft
Symboles :   Orages  Brouillard  Fortes neiges  Fortes précipitations  Vent > 20 kt
SIGMETs :   Divers  Orages  Givrage  Turbulence  Onde Orograph.  Cendres Volcan.






- Altitude de l'aérodrome : 74 ft
- Code IATA : EIN


EHEH - Eindhoven

DERNIER METAR :
  • 251525Z AUTO 23012KT 9999 SCT026 BKN082 BKN091 07/02 Q0998 BLU 25014G24KT 9999 SCT030 BKN040 TEMPO 27015G27KT 2000 TSRAGS SCT018CB BKN020

METARs EXPIRÉS :
  • 251455Z AUTO 22017G27KT 200V260 9999 FEW018CB BKN067 BKN073 07/02 Q0997 REDZ BLU 25014G24KT 9999 SCT030 BKN040 TEMPO 27015G27KT 2000 TSRAGS SCT018CB BKN020
  • 251425Z AUTO 25011KT 210V290 9999 BKN036 OVC042 09/02 Q0998 BLU 25014G24KT 9999 SCT030 BKN040 TEMPO 27015G27KT 2000 TSRAGS SCT018CB BKN020
  • 251355Z AUTO 24014KT 220V310 9999 SCT039 BKN043 BKN048 10/01 Q0998 BLU 25014G24KT 9999 SCT030 BKN040 TEMPO 27015G27KT 4500 SHRA SCT018CB BKN020
  • 251325Z AUTO 25014KT 210V290 9999 FEW047 BKN052 09/01 Q0999 BLU 25014G24KT 9999 SCT030 BKN040 TEMPO 27015G27KT 4500 SHRA SCT018CB BKN020
  • 251255Z AUTO 25014KT 200V280 9999 SCT034 SCT040 BKN058 09/02 Q0999 BLU 25014G24KT 9999 SCT030 BKN040 TEMPO 27015G27KT 4500 SHRA SCT018CB BKN020

TAF TAF EHEH
Valide du 25 à 12h jusqu'au 26 à 18h UTC


251142Z 2512/2618 25015G25KT 9999 SCT020
BECMG 2514/2517 22011KT
TEMPO 2512/2618 27015G27KT 4500 SHRA SCT018CB BKN022
PROB40
TEMPO 2512/2618 2000 TSRAGS SHRASN SCT005 SCT015CB BKN020
PROB30
TEMPO 2521/2604 FEW002 SCT003 BKN005
BECMG 2604/2607 28012KT



MET'MAP, la Météo Aéronautique d'un coup d'oeil ! - Copyright ORBIFLY Décembre 2007 - Disclaimer

ORBIFLY MET'MAP TEAM :

Programmation & Développement : Alexandra Zaïnal
Sur une idée originale de : Baudouin d'Aumeries
Assistance à la programmation : Marc-Olivier Méhu
Soutien technique & logistique : Manuel Goepfert

Contact : metmap@orbifly.com




SOURCES & CREDITS :

   NOAA